createdAt,value
2017-08-06T00:02:13.234Z,44.63
2017-08-06T00:04:40.811Z,34.37
2017-08-06T00:07:08.327Z,40.40
2017-08-06T00:09:35.861Z,43.80
2017-08-06T00:12:03.386Z,46.73
2017-08-06T00:14:31.328Z,52.97
2017-08-06T00:16:58.867Z,45.03
2017-08-06T00:19:26.382Z,43.67
2017-08-06T00:21:53.948Z,46.90
2017-08-06T00:24:21.481Z,49.43
2017-08-06T00:26:49.029Z,44.63
2017-08-06T00:29:16.534Z,48.07
2017-08-06T00:31:44.062Z,49.37
2017-08-06T00:34:11.984Z,54.87
2017-08-06T00:36:39.520Z,59.37
2017-08-06T00:39:07.027Z,55.17
2017-08-06T00:41:34.544Z,52.73
2017-08-06T00:44:02.082Z,56.87
2017-08-06T00:46:29.608Z,68.00
2017-08-06T00:48:57.154Z,50.20
2017-08-06T00:51:24.662Z,49.83
2017-08-06T00:53:52.190Z,52.47
2017-08-06T00:56:20.110Z,46.13
2017-08-06T00:58:47.665Z,53.80
2017-08-06T01:01:15.178Z,49.73
2017-08-06T01:03:43.108Z,57.87
2017-08-06T01:06:10.671Z,53.87
2017-08-06T01:08:38.187Z,55.93
2017-08-06T01:11:05.724Z,49.63
2017-08-06T01:13:33.250Z,50.00
2017-08-06T01:16:00.783Z,56.57
2017-08-06T01:18:29.437Z,56.33
2017-08-06T01:20:56.975Z,60.70
2017-08-06T01:23:24.904Z,63.90
2017-08-06T01:25:52.429Z,63.93
2017-08-06T01:28:19.977Z,60.90
2017-08-06T01:30:47.505Z,60.57
2017-08-06T01:33:15.034Z,68.70
2017-08-06T01:35:42.572Z,65.33
2017-08-06T01:38:10.118Z,65.13
2017-08-06T01:40:37.638Z,63.07
2017-08-06T01:43:05.226Z,64.43
2017-08-06T01:45:32.755Z,62.73
2017-08-06T01:48:00.308Z,63.20
2017-08-06T01:50:27.856Z,55.23
2017-08-06T01:52:55.373Z,51.80
2017-08-06T01:55:22.912Z,55.73
2017-08-06T01:57:51.277Z,57.63
2017-08-06T02:00:18.828Z,52.53
2017-08-06T02:02:46.764Z,47.30
2017-08-06T02:05:14.345Z,52.67
2017-08-06T02:07:41.866Z,53.43
2017-08-06T02:10:09.403Z,54.90
2017-08-06T02:12:36.944Z,52.43
2017-08-06T02:15:04.875Z,50.57
2017-08-06T02:17:32.413Z,49.07
2017-08-06T02:19:59.925Z,54.90
2017-08-06T02:22:27.863Z,59.07
2017-08-06T02:24:55.369Z,51.13
2017-08-06T02:27:22.881Z,60.07
2017-08-06T02:29:50.422Z,52.10
2017-08-06T02:32:17.953Z,53.40
2017-08-06T02:34:45.493Z,55.13
2017-08-06T02:37:13.031Z,54.83
2017-08-06T02:39:40.987Z,54.13
2017-08-06T02:42:08.511Z,44.13
2017-08-06T02:44:36.040Z,54.27
2017-08-06T02:47:03.579Z,53.20
2017-08-06T02:49:31.095Z,47.30
2017-08-06T02:51:58.663Z,47.83
2017-08-06T02:54:26.176Z,49.60
2017-08-06T02:56:53.722Z,49.88
2017-08-06T02:59:21.231Z,51.60
2017-08-06T03:01:48.785Z,56.00
2017-08-06T03:04:16.310Z,48.83
2017-08-06T03:06:43.843Z,55.43
2017-08-06T03:09:11.428Z,54.10
2017-08-06T03:11:38.950Z,56.37
2017-08-06T03:14:06.880Z,55.15
2017-08-06T03:16:34.403Z,52.95
2017-08-06T03:19:01.963Z,61.15
2017-08-06T03:21:29.484Z,52.88
2017-08-06T03:23:57.431Z,59.53
2017-08-06T03:26:24.973Z,63.83
2017-08-06T03:28:52.536Z,73.60
2017-08-06T03:31:20.084Z,70.12
2017-08-06T03:33:47.605Z,73.75
2017-08-06T03:36:15.138Z,67.53
2017-08-06T03:38:42.668Z,76.75
2017-08-06T03:41:10.208Z,70.28
2017-08-06T03:43:37.754Z,66.18
2017-08-06T03:46:05.272Z,68.77
2017-08-06T03:48:33.214Z,69.72
2017-08-06T03:51:00.755Z,73.53
2017-08-06T03:53:28.957Z,63.65
2017-08-06T03:55:56.900Z,63.97
2017-08-06T03:58:24.433Z,64.45
2017-08-06T04:00:51.968Z,66.50
2017-08-06T04:03:19.548Z,72.18
2017-08-06T04:05:47.079Z,74.53
2017-08-06T04:08:14.997Z,66.72
2017-08-06T04:10:42.556Z,72.32
2017-08-06T04:13:10.090Z,70.70
2017-08-06T04:15:37.629Z,66.30
2017-08-06T04:18:05.171Z,65.60
2017-08-06T04:20:32.748Z,68.20
2017-08-06T04:23:00.281Z,69.55
2017-08-06T04:25:27.824Z,70.47
2017-08-06T04:27:55.365Z,67.68
2017-08-06T04:30:22.888Z,76.68
2017-08-06T04:32:50.433Z,63.90
2017-08-06T04:35:18.345Z,65.10
2017-08-06T04:37:45.904Z,58.53
2017-08-06T04:40:13.432Z,65.40
2017-08-06T04:42:40.972Z,62.13
2017-08-06T04:45:08.905Z,63.03
2017-08-06T04:47:36.444Z,61.03
2017-08-06T04:50:04.000Z,65.87
2017-08-06T04:52:31.537Z,57.40
2017-08-06T04:54:59.077Z,58.00
2017-08-06T04:57:26.621Z,56.83
2017-08-06T04:59:54.560Z,53.67
2017-08-06T05:02:22.103Z,60.50
2017-08-06T05:04:49.636Z,58.17
2017-08-06T05:07:17.200Z,50.65
2017-08-06T05:09:44.737Z,51.80
2017-08-06T05:12:12.340Z,51.10
2017-08-06T05:14:39.892Z,41.77
2017-08-06T05:17:07.427Z,36.88
2017-08-06T05:19:35.016Z,38.53
2017-08-06T05:22:02.572Z,39.40
2017-08-06T05:24:30.107Z,38.88
2017-08-06T05:26:57.658Z,45.17
2017-08-06T05:29:25.302Z,46.80
2017-08-06T05:31:53.237Z,39.63
2017-08-06T05:34:20.774Z,35.85
2017-08-06T05:36:48.355Z,33.05
2017-08-06T05:39:15.884Z,35.80
2017-08-06T05:41:43.511Z,37.87
2017-08-06T05:44:11.443Z,38.63
2017-08-06T05:46:39.010Z,35.40
2017-08-06T05:49:06.970Z,34.97
2017-08-06T05:51:34.522Z,35.83
2017-08-06T05:54:02.061Z,26.80
2017-08-06T05:56:30.219Z,25.40
2017-08-06T05:58:57.779Z,32.77
2017-08-06T06:01:25.290Z,42.33
2017-08-06T06:03:52.812Z,43.47
2017-08-06T06:06:20.463Z,44.50
2017-08-06T06:08:48.094Z,43.83
2017-08-06T06:11:16.119Z,43.80
2017-08-06T06:13:43.666Z,51.73
2017-08-06T06:16:11.177Z,45.50
2017-08-06T06:18:38.764Z,46.60
2017-08-06T06:21:06.311Z,48.97
2017-08-06T06:23:33.867Z,43.47
2017-08-06T06:26:01.431Z,50.97
2017-08-06T06:28:29.639Z,45.30
2017-08-06T06:30:57.222Z,46.00
2017-08-06T06:33:25.263Z,45.07
2017-08-06T06:35:52.820Z,47.87
2017-08-06T06:38:20.353Z,42.40
2017-08-06T06:40:47.955Z,45.10
2017-08-06T06:43:15.536Z,36.60
2017-08-06T06:45:43.110Z,33.90
2017-08-06T06:48:10.666Z,35.40
2017-08-06T06:50:38.273Z,42.13
2017-08-06T06:53:05.798Z,35.03
2017-08-06T06:55:33.362Z,34.87
2017-08-06T06:58:00.927Z,35.03
2017-08-06T07:00:28.710Z,36.63
2017-08-06T07:02:56.248Z,35.00
2017-08-06T07:05:23.884Z,33.20
2017-08-06T07:07:51.453Z,38.20
2017-08-06T07:10:20.134Z,30.57
2017-08-06T07:12:47.731Z,30.80
2017-08-06T07:15:15.276Z,34.00
2017-08-06T07:17:42.849Z,31.27
2017-08-06T07:20:10.403Z,27.70
2017-08-06T07:22:37.961Z,26.40
2017-08-06T07:25:05.485Z,31.47
2017-08-06T07:27:33.086Z,31.27
2017-08-06T07:30:00.740Z,32.43
2017-08-06T07:32:28.458Z,38.10
2017-08-06T07:34:56.006Z,24.13
2017-08-06T07:37:24.184Z,24.07
2017-08-06T07:39:52.149Z,25.60
2017-08-06T07:42:19.691Z,25.37
2017-08-06T07:44:47.291Z,25.63
2017-08-06T07:47:14.827Z,18.50
2017-08-06T07:49:42.783Z,18.50
2017-08-06T07:52:10.405Z,24.20
2017-08-06T07:54:38.112Z,23.53
2017-08-06T07:57:06.048Z,22.00
2017-08-06T07:59:33.733Z,19.37
2017-08-06T08:02:01.307Z,23.73
2017-08-06T08:04:29.229Z,18.73
2017-08-06T08:06:56.784Z,20.87
2017-08-06T08:09:24.365Z,20.43
2017-08-06T08:11:51.950Z,17.00
2017-08-06T08:14:19.486Z,17.13
2017-08-06T08:16:47.021Z,18.73
2017-08-06T08:19:14.639Z,16.23
2017-08-06T08:21:42.216Z,14.73
2017-08-06T08:24:09.797Z,17.30
2017-08-06T08:26:37.558Z,15.70
2017-08-06T08:29:05.135Z,13.50
2017-08-06T08:31:32.689Z,10.50
2017-08-06T08:34:00.853Z,12.27
2017-08-06T08:36:28.399Z,8.57
2017-08-06T08:38:55.977Z,10.37
2017-08-06T08:41:23.592Z,7.70
2017-08-06T08:43:51.149Z,9.20
2017-08-06T08:46:19.101Z,7.80
2017-08-06T08:48:46.640Z,7.20
2017-08-06T08:51:14.161Z,5.53
2017-08-06T08:53:41.705Z,5.47
2017-08-06T08:56:09.422Z,6.47
2017-08-06T08:58:37.067Z,7.00
2017-08-06T09:01:04.620Z,6.80
2017-08-06T09:03:32.178Z,9.67
2017-08-06T09:06:01.937Z,8.20
2017-08-06T09:08:30.691Z,10.10
2017-08-06T09:11:04.402Z,8.50
2017-08-06T09:13:32.318Z,9.07
2017-08-06T09:15:59.936Z,7.10
2017-08-06T09:18:27.548Z,7.20
2017-08-06T09:20:55.135Z,8.80
2017-08-06T09:23:22.889Z,6.50
2017-08-06T09:25:50.446Z,9.47
2017-08-06T09:28:18.006Z,6.90
2017-08-06T09:30:46.447Z,6.60
2017-08-06T09:33:14.307Z,6.03
2017-08-06T09:35:42.040Z,5.70
2017-08-06T09:38:09.669Z,5.60
2017-08-06T09:40:37.221Z,4.90
2017-08-06T09:43:04.802Z,4.10
2017-08-06T09:45:32.488Z,6.80
2017-08-06T09:48:00.988Z,5.73
2017-08-06T09:50:29.064Z,6.00
2017-08-06T09:52:56.619Z,6.00
2017-08-06T09:55:24.141Z,8.17
2017-08-06T09:57:51.742Z,3.57
2017-08-06T10:00:19.340Z,4.23
2017-08-06T10:02:46.837Z,3.47
2017-08-06T10:05:14.758Z,2.60
2017-08-06T10:07:42.359Z,3.93
2017-08-06T10:10:10.290Z,3.23
2017-08-06T10:12:37.839Z,3.10
2017-08-06T10:15:05.380Z,5.23
2017-08-06T10:17:32.928Z,3.57
2017-08-06T10:20:00.496Z,4.07
2017-08-06T10:22:28.017Z,4.10
2017-08-06T10:24:55.620Z,3.97
2017-08-06T10:27:23.158Z,4.83
2017-08-06T10:29:50.683Z,2.80
2017-08-06T10:32:18.586Z,2.67
2017-08-06T10:34:46.169Z,5.13
2017-08-06T10:37:13.704Z,4.60
2017-08-06T10:39:41.217Z,3.90
2017-08-06T10:42:08.768Z,3.30
2017-08-06T10:44:36.369Z,3.10
2017-08-06T10:47:03.884Z,3.00
2017-08-06T10:49:31.513Z,3.20
2017-08-06T10:52:00.276Z,3.30
2017-08-06T10:54:27.799Z,4.87
2017-08-06T10:56:55.336Z,2.60
2017-08-06T10:59:22.902Z,4.73
2017-08-06T11:01:50.457Z,3.40
2017-08-06T11:04:17.972Z,3.53
2017-08-06T11:06:45.654Z,2.63
2017-08-06T11:09:13.206Z,3.47
2017-08-06T11:11:40.828Z,2.50
2017-08-06T11:14:08.742Z,3.40
2017-08-06T11:16:36.341Z,2.97
2017-08-06T11:19:03.862Z,2.53
2017-08-06T11:21:31.423Z,2.60
2017-08-06T11:23:59.704Z,3.27
2017-08-06T11:29:01.119Z,2.97
2017-08-06T11:31:28.725Z,3.83
2017-08-06T11:33:56.293Z,3.13
2017-08-06T11:36:23.795Z,2.10
2017-08-06T11:38:51.382Z,2.90
2017-08-06T11:41:18.959Z,2.60
2017-08-06T11:43:46.479Z,2.13
2017-08-06T11:46:14.111Z,2.73
2017-08-06T11:48:42.042Z,2.50
2017-08-06T11:51:09.627Z,1.87
2017-08-06T11:53:37.150Z,1.97
2017-08-06T11:56:04.683Z,2.07
2017-08-06T11:58:32.195Z,3.47
2017-08-06T12:00:59.875Z,2.07
2017-08-06T12:03:27.782Z,3.60
2017-08-06T12:05:55.437Z,2.20
2017-08-06T12:08:23.033Z,2.93
2017-08-06T12:10:50.556Z,2.13
2017-08-06T12:13:18.233Z,3.00
2017-08-06T12:15:45.791Z,3.20
2017-08-06T12:18:13.321Z,5.00
2017-08-06T12:20:40.878Z,1.70
2017-08-06T12:23:08.446Z,1.93
2017-08-06T12:25:35.980Z,2.60
2017-08-06T12:28:03.966Z,3.10
2017-08-06T12:30:31.519Z,3.73
2017-08-06T12:32:59.732Z,2.60
2017-08-06T12:35:27.251Z,1.63
2017-08-06T12:37:54.833Z,2.20
2017-08-06T12:40:22.415Z,1.83
2017-08-06T12:42:49.976Z,4.90
2017-08-06T12:45:17.582Z,5.00
2017-08-06T12:47:45.186Z,2.43
2017-08-06T12:50:12.746Z,5.40
2017-08-06T12:52:40.369Z,2.10
2017-08-06T12:55:08.039Z,1.67
2017-08-06T12:57:35.574Z,3.20
2017-08-06T13:00:03.530Z,5.30
2017-08-06T13:02:31.440Z,2.63
2017-08-06T13:04:59.439Z,6.40
2017-08-06T13:07:26.971Z,2.50
2017-08-06T13:09:54.591Z,2.47
2017-08-06T13:12:22.630Z,4.77
2017-08-06T13:14:50.146Z,2.13
2017-08-06T13:17:17.719Z,2.07
2017-08-06T13:19:45.251Z,1.70
2017-08-06T13:22:12.795Z,2.70
2017-08-06T13:24:40.707Z,2.90
2017-08-06T13:27:08.284Z,2.97
2017-08-06T13:29:35.871Z,3.20
2017-08-06T13:32:03.547Z,2.87
2017-08-06T13:34:31.944Z,3.53
2017-08-06T13:36:59.934Z,3.43
2017-08-06T13:39:27.678Z,4.30
2017-08-06T13:41:55.224Z,3.30
2017-08-06T13:44:23.218Z,1.77
2017-08-06T13:46:50.935Z,2.30
2017-08-06T13:49:18.967Z,1.93
2017-08-06T13:51:46.557Z,2.33
2017-08-06T13:54:14.498Z,2.20
2017-08-06T13:56:42.741Z,4.20
2017-08-06T13:59:10.385Z,2.00
2017-08-06T14:01:37.908Z,1.73
2017-08-06T14:04:05.461Z,2.40
2017-08-06T14:06:33.070Z,3.33
2017-08-06T14:09:00.578Z,1.83
2017-08-06T14:11:28.183Z,2.03
2017-08-06T14:13:55.774Z,3.93
2017-08-06T14:16:23.315Z,3.73
2017-08-06T14:18:50.853Z,3.33
2017-08-06T14:21:18.419Z,3.73
2017-08-06T14:23:45.943Z,2.50
2017-08-06T14:26:13.486Z,2.30
2017-08-06T14:28:41.021Z,3.80
2017-08-06T14:31:08.711Z,2.20
2017-08-06T14:33:36.324Z,2.37
2017-08-06T14:36:03.821Z,2.50
2017-08-06T14:38:31.416Z,1.53
2017-08-06T14:40:59.338Z,2.10
2017-08-06T14:43:26.948Z,1.70
2017-08-06T14:45:54.474Z,1.47
2017-08-06T14:48:21.994Z,2.67
2017-08-06T14:50:49.527Z,2.67
2017-08-06T14:53:17.134Z,1.77
2017-08-06T14:55:44.690Z,2.43
2017-08-06T14:58:12.214Z,1.63
2017-08-06T15:00:40.967Z,2.50
2017-08-06T15:03:08.901Z,1.50
2017-08-06T15:05:36.505Z,2.43
2017-08-06T15:08:04.099Z,6.30
2017-08-06T15:10:31.609Z,2.50
2017-08-06T15:13:01.371Z,2.37
2017-08-06T15:15:29.531Z,3.23
2017-08-06T15:17:57.092Z,1.77
2017-08-06T15:20:24.704Z,1.90
2017-08-06T15:22:52.651Z,1.90
2017-08-06T15:25:21.374Z,3.17
2017-08-06T15:27:49.427Z,1.70
2017-08-06T15:30:16.939Z,1.70
2017-08-06T15:32:44.624Z,2.10
2017-08-06T15:35:12.323Z,2.37
2017-08-06T15:37:40.382Z,2.00
2017-08-06T15:40:08.353Z,2.27
2017-08-06T15:42:35.903Z,1.97
2017-08-06T15:45:03.476Z,5.17
2017-08-06T15:47:31.012Z,2.70
2017-08-06T15:49:59.184Z,4.33
2017-08-06T15:52:27.216Z,1.60
2017-08-06T15:54:54.993Z,2.27
2017-08-06T15:57:22.575Z,1.60
2017-08-06T15:59:50.340Z,3.67
2017-08-06T16:02:17.861Z,2.67
2017-08-06T16:04:45.576Z,1.87
2017-08-06T16:07:13.136Z,1.87
2017-08-06T16:09:41.017Z,2.67
2017-08-06T16:12:08.545Z,2.83
2017-08-06T16:14:36.287Z,2.70
2017-08-06T16:17:03.812Z,1.80
2017-08-06T16:19:31.503Z,1.70
2017-08-06T16:21:59.250Z,2.97
2017-08-06T16:24:26.809Z,2.23
2017-08-06T16:26:54.328Z,4.20
2017-08-06T16:29:22.120Z,2.43
2017-08-06T16:31:49.626Z,1.70
2017-08-06T16:34:17.463Z,2.23
2017-08-06T16:36:45.007Z,1.57
2017-08-06T16:39:12.764Z,2.10
2017-08-06T16:41:40.298Z,2.40
2017-08-06T16:44:07.937Z,1.93
2017-08-06T16:46:35.624Z,3.40
2017-08-06T16:49:03.611Z,3.13
2017-08-06T16:51:31.335Z,1.60
2017-08-06T16:53:59.336Z,1.97
2017-08-06T16:56:27.148Z,3.50
2017-08-06T16:58:54.678Z,2.23
2017-08-06T17:01:22.368Z,3.20
2017-08-06T17:03:49.940Z,2.93
2017-08-06T17:06:17.607Z,2.67
2017-08-06T17:08:45.155Z,2.50
2017-08-06T17:11:12.875Z,3.70
2017-08-06T17:13:40.406Z,1.93
2017-08-06T17:16:08.082Z,1.90
2017-08-06T17:18:35.680Z,3.20
2017-08-06T17:21:03.468Z,2.57
2017-08-06T17:23:31.156Z,3.67
2017-08-06T17:25:58.797Z,2.80
2017-08-06T17:28:26.794Z,2.77
2017-08-06T17:30:54.531Z,2.33
2017-08-06T17:33:22.485Z,2.10
2017-08-06T17:35:50.017Z,2.43
2017-08-06T17:38:17.568Z,1.80
2017-08-06T17:40:45.124Z,3.53
2017-08-06T17:43:12.638Z,3.30
2017-08-06T17:45:41.449Z,2.13
2017-08-06T17:48:09.287Z,3.33
2017-08-06T17:50:37.277Z,2.37
2017-08-06T17:53:06.004Z,2.87
2017-08-06T17:55:33.585Z,1.80
2017-08-06T17:58:01.309Z,1.60
2017-08-06T18:00:29.642Z,2.03
2017-08-06T18:02:57.616Z,1.77
2017-08-06T18:05:25.181Z,1.73
2017-08-06T18:07:52.995Z,2.37
2017-08-06T18:10:21.557Z,2.47
2017-08-06T18:12:49.305Z,2.77
2017-08-06T18:15:17.037Z,1.63
2017-08-06T18:17:44.726Z,2.60
2017-08-06T18:20:12.564Z,2.20
2017-08-06T18:22:40.147Z,2.60
2017-08-06T18:25:08.135Z,7.77
2017-08-06T18:27:35.693Z,3.60
2017-08-06T18:30:04.282Z,2.47
2017-08-06T18:32:31.867Z,2.57
2017-08-06T18:35:00.148Z,2.80
2017-08-06T18:37:27.715Z,2.60
2017-08-06T18:39:55.323Z,3.27
2017-08-06T18:42:22.902Z,4.43
2017-08-06T18:44:50.471Z,3.23
2017-08-06T18:47:18.023Z,4.80
2017-08-06T18:49:45.549Z,2.53
2017-08-06T18:52:13.116Z,4.40
2017-08-06T18:54:40.615Z,4.50
2017-08-06T18:57:08.207Z,7.50
2017-08-06T18:59:35.946Z,2.53
2017-08-06T19:02:03.522Z,2.83
2017-08-06T19:04:31.058Z,3.27
2017-08-06T19:06:58.778Z,3.43
2017-08-06T19:09:26.295Z,3.43
2017-08-06T19:11:53.825Z,3.00
2017-08-06T19:14:21.326Z,3.60
2017-08-06T19:16:49.007Z,3.53
2017-08-06T19:19:16.581Z,3.60
2017-08-06T19:21:44.107Z,3.80
2017-08-06T19:24:11.642Z,3.63
2017-08-06T19:26:39.632Z,4.50
2017-08-06T19:29:07.309Z,3.53
2017-08-06T19:31:34.827Z,3.10
2017-08-06T19:34:02.384Z,2.93
2017-08-06T19:36:30.558Z,3.60
2017-08-06T19:38:59.193Z,4.30
2017-08-06T19:41:26.721Z,3.53
2017-08-06T19:43:54.248Z,6.83
2017-08-06T19:46:21.802Z,4.07
2017-08-06T19:48:49.774Z,3.80
2017-08-06T19:51:17.432Z,3.70
2017-08-06T19:53:44.981Z,3.63
2017-08-06T19:56:12.497Z,4.10
2017-08-06T19:58:40.069Z,3.00
2017-08-06T20:01:08.386Z,5.73
2017-08-06T20:03:35.975Z,5.63
2017-08-06T20:06:03.495Z,4.90
2017-08-06T20:08:31.020Z,4.70
2017-08-06T20:10:58.598Z,3.10
2017-08-06T20:13:26.133Z,6.20
2017-08-06T20:15:53.640Z,3.20
2017-08-06T20:18:21.995Z,7.00
2017-08-06T20:20:50.253Z,4.30
2017-08-06T20:23:17.822Z,3.20
2017-08-06T20:25:45.338Z,3.60
2017-08-06T20:28:12.874Z,4.70
2017-08-06T20:30:40.789Z,3.60
2017-08-06T20:33:08.323Z,4.10
2017-08-06T20:35:35.851Z,4.17
2017-08-06T20:38:03.383Z,4.77
2017-08-06T20:40:30.920Z,9.37
2017-08-06T20:42:58.562Z,4.87
2017-08-06T20:45:26.109Z,3.93
2017-08-06T20:47:53.634Z,4.37
2017-08-06T20:50:21.280Z,3.90
2017-08-06T20:52:48.853Z,4.60
2017-08-06T20:55:16.423Z,4.20
2017-08-06T20:57:44.552Z,3.47
2017-08-06T21:00:12.088Z,7.90
2017-08-06T21:02:39.855Z,4.80
2017-08-06T21:05:07.368Z,4.30
2017-08-06T21:07:34.894Z,3.30
2017-08-06T21:10:02.417Z,3.73
2017-08-06T21:12:29.957Z,3.70
2017-08-06T21:14:57.868Z,3.23
2017-08-06T21:17:25.404Z,4.83
2017-08-06T21:19:52.949Z,3.67
2017-08-06T21:22:20.493Z,3.60
2017-08-06T21:24:48.043Z,4.73
2017-08-06T21:27:15.971Z,3.23
2017-08-06T21:29:43.534Z,4.60
2017-08-06T21:32:11.145Z,4.47
2017-08-06T21:34:38.743Z,4.47
2017-08-06T21:37:06.537Z,4.03
2017-08-06T21:39:34.085Z,6.70
2017-08-06T21:42:01.590Z,4.10
2017-08-06T21:44:29.093Z,4.27
2017-08-06T21:46:56.728Z,9.20
2017-08-06T21:49:24.244Z,3.80
2017-08-06T21:51:52.203Z,3.70
2017-08-06T21:54:19.726Z,4.20
2017-08-06T21:56:47.416Z,4.17
2017-08-06T21:59:14.946Z,4.23
2017-08-06T22:01:42.486Z,4.13
2017-08-06T22:04:10.015Z,4.33
2017-08-06T22:06:37.612Z,3.80
2017-08-06T22:09:05.145Z,4.23
2017-08-06T22:11:32.655Z,4.17
2017-08-06T22:14:00.214Z,4.30
2017-08-06T22:16:27.820Z,5.00
2017-08-06T22:18:55.381Z,3.50
2017-08-06T22:21:22.911Z,4.30
2017-08-06T22:23:50.454Z,6.70
2017-08-06T22:26:17.990Z,3.70
2017-08-06T22:28:46.588Z,6.53
2017-08-06T22:31:14.102Z,4.27
2017-08-06T22:33:42.126Z,4.33
2017-08-06T22:36:09.869Z,4.67
2017-08-06T22:38:37.366Z,5.40
2017-08-06T22:41:05.304Z,4.17
2017-08-06T22:43:32.822Z,4.23
2017-08-06T22:46:00.709Z,5.03
2017-08-06T22:48:28.325Z,4.93
2017-08-06T22:50:55.888Z,4.07
2017-08-06T22:53:23.802Z,7.73
2017-08-06T22:55:51.374Z,3.83
2017-08-06T22:58:18.905Z,5.63
2017-08-06T23:00:47.360Z,3.90
2017-08-06T23:03:14.910Z,4.50
2017-08-06T23:05:42.437Z,5.37
2017-08-06T23:08:10.000Z,4.30
2017-08-06T23:10:37.518Z,5.40
2017-08-06T23:13:05.053Z,3.93
2017-08-06T23:15:32.569Z,4.67
2017-08-06T23:18:00.115Z,4.07
2017-08-06T23:20:27.625Z,5.07
2017-08-06T23:22:55.134Z,4.47
2017-08-06T23:25:22.682Z,5.80
2017-08-06T23:27:50.194Z,4.33
2017-08-06T23:30:17.743Z,4.50
2017-08-06T23:32:46.230Z,4.07
2017-08-06T23:35:13.766Z,4.13
2017-08-06T23:37:41.715Z,5.27
2017-08-06T23:40:09.249Z,4.63
2017-08-06T23:42:36.799Z,4.80
2017-08-06T23:45:04.360Z,4.60
2017-08-06T23:47:31.873Z,5.40
2017-08-06T23:49:59.783Z,4.93
2017-08-06T23:52:27.758Z,4.73
2017-08-06T23:54:55.309Z,4.70
2017-08-06T23:57:22.849Z,8.20
2017-08-06T23:59:50.377Z,5.10
